sensor_id;sensor_type;location;lat;lon;timestamp;P1;durP1;ratioP1;P2;durP2;ratioP2
76935;SDS011;65881;52.438;16.744;2024-03-25T00:02:00;9.30;;;6.18;;
76935;SDS011;65881;52.438;16.744;2024-03-25T00:04:25;9.77;;;6.47;;
76935;SDS011;65881;52.438;16.744;2024-03-25T00:06:51;11.05;;;6.28;;
76935;SDS011;65881;52.438;16.744;2024-03-25T00:09:17;9.77;;;5.70;;
76935;SDS011;65881;52.438;16.744;2024-03-25T00:11:43;13.23;;;7.90;;
76935;SDS011;65881;52.438;16.744;2024-03-25T00:14:09;9.80;;;6.45;;
76935;SDS011;65881;52.438;16.744;2024-03-25T00:16:34;12.95;;;6.93;;
76935;SDS011;65881;52.438;16.744;2024-03-25T00:19:00;12.27;;;7.55;;
76935;SDS011;65881;52.438;16.744;2024-03-25T00:21:26;9.20;;;5.57;;
76935;SDS011;65881;52.438;16.744;2024-03-25T00:23:52;10.90;;;6.43;;
76935;SDS011;65881;52.438;16.744;2024-03-25T00:26:17;8.90;;;5.97;;
76935;SDS011;65881;52.438;16.744;2024-03-25T00:28:43;8.45;;;5.93;;
76935;SDS011;65881;52.438;16.744;2024-03-25T00:31:08;8.40;;;5.82;;
76935;SDS011;65881;52.438;16.744;2024-03-25T00:33:34;12.40;;;6.07;;
76935;SDS011;65881;52.438;16.744;2024-03-25T00:36:00;10.88;;;6.68;;
76935;SDS011;65881;52.438;16.744;2024-03-25T00:38:26;8.35;;;5.25;;
76935;SDS011;65881;52.438;16.744;2024-03-25T00:40:51;8.30;;;6.10;;
76935;SDS011;65881;52.438;16.744;2024-03-25T00:43:17;15.73;;;5.97;;
76935;SDS011;65881;52.438;16.744;2024-03-25T00:45:43;9.38;;;5.60;;
76935;SDS011;65881;52.438;16.744;2024-03-25T00:48:09;9.43;;;6.30;;
76935;SDS011;65881;52.438;16.744;2024-03-25T00:50:34;9.45;;;5.70;;
76935;SDS011;65881;52.438;16.744;2024-03-25T00:53:00;8.30;;;5.30;;
76935;SDS011;65881;52.438;16.744;2024-03-25T00:55:25;10.55;;;5.28;;
76935;SDS011;65881;52.438;16.744;2024-03-25T00:57:51;9.13;;;5.28;;
76935;SDS011;65881;52.438;16.744;2024-03-25T01:00:17;8.68;;;5.47;;
76935;SDS011;65881;52.438;16.744;2024-03-25T01:02:42;7.85;;;4.70;;
76935;SDS011;65881;52.438;16.744;2024-03-25T01:05:08;7.90;;;5.47;;
76935;SDS011;65881;52.438;16.744;2024-03-25T01:07:34;8.38;;;5.55;;
76935;SDS011;65881;52.438;16.744;2024-03-25T01:10:00;7.82;;;5.72;;
76935;SDS011;65881;52.438;16.744;2024-03-25T01:12:25;7.93;;;5.25;;
76935;SDS011;65881;52.438;16.744;2024-03-25T01:14:51;9.00;;;5.10;;
76935;SDS011;65881;52.438;16.744;2024-03-25T01:17:17;9.50;;;5.60;;
76935;SDS011;65881;52.438;16.744;2024-03-25T01:19:45;9.45;;;5.43;;
76935;SDS011;65881;52.438;16.744;2024-03-25T01:22:10;8.50;;;5.10;;
76935;SDS011;65881;52.438;16.744;2024-03-25T01:24:36;8.32;;;4.75;;
76935;SDS011;65881;52.438;16.744;2024-03-25T01:27:01;10.02;;;6.70;;
76935;SDS011;65881;52.438;16.744;2024-03-25T01:29:27;7.22;;;5.07;;
76935;SDS011;65881;52.438;16.744;2024-03-25T01:31:53;7.93;;;4.55;;
76935;SDS011;65881;52.438;16.744;2024-03-25T01:34:18;9.10;;;6.35;;
76935;SDS011;65881;52.438;16.744;2024-03-25T01:36:44;6.88;;;5.43;;
76935;SDS011;65881;52.438;16.744;2024-03-25T01:39:10;9.57;;;5.43;;
76935;SDS011;65881;52.438;16.744;2024-03-25T01:41:35;7.82;;;5.25;;
76935;SDS011;65881;52.438;16.744;2024-03-25T01:44:01;7.10;;;5.28;;
76935;SDS011;65881;52.438;16.744;2024-03-25T01:46:27;7.05;;;5.05;;
76935;SDS011;65881;52.438;16.744;2024-03-25T01:48:53;7.85;;;4.38;;
76935;SDS011;65881;52.438;16.744;2024-03-25T01:51:20;8.10;;;5.22;;
76935;SDS011;65881;52.438;16.744;2024-03-25T01:53:48;7.75;;;4.75;;
76935;SDS011;65881;52.438;16.744;2024-03-25T01:56:14;6.63;;;4.68;;
76935;SDS011;65881;52.438;16.744;2024-03-25T01:58:41;6.47;;;5.03;;
76935;SDS011;65881;52.438;16.744;2024-03-25T02:01:07;6.47;;;4.65;;
76935;SDS011;65881;52.438;16.744;2024-03-25T02:03:35;8.48;;;4.88;;
76935;SDS011;65881;52.438;16.744;2024-03-25T02:06:02;6.07;;;4.75;;
76935;SDS011;65881;52.438;16.744;2024-03-25T02:08:33;7.22;;;4.85;;
76935;SDS011;65881;52.438;16.744;2024-03-25T02:10:59;7.63;;;5.47;;
76935;SDS011;65881;52.438;16.744;2024-03-25T02:13:26;7.18;;;5.43;;
76935;SDS011;65881;52.438;16.744;2024-03-25T02:15:52;7.25;;;4.97;;
76935;SDS011;65881;52.438;16.744;2024-03-25T02:18:18;7.18;;;5.35;;
76935;SDS011;65881;52.438;16.744;2024-03-25T02:20:44;7.43;;;4.68;;
76935;SDS011;65881;52.438;16.744;2024-03-25T02:23:10;8.32;;;4.78;;
76935;SDS011;65881;52.438;16.744;2024-03-25T02:25:37;9.23;;;5.32;;
76935;SDS011;65881;52.438;16.744;2024-03-25T02:28:04;7.70;;;5.00;;
76935;SDS011;65881;52.438;16.744;2024-03-25T02:30:29;7.68;;;6.05;;
76935;SDS011;65881;52.438;16.744;2024-03-25T02:32:55;9.27;;;6.55;;
76935;SDS011;65881;52.438;16.744;2024-03-25T02:35:20;7.03;;;5.38;;
76935;SDS011;65881;52.438;16.744;2024-03-25T02:37:50;10.48;;;5.93;;
76935;SDS011;65881;52.438;16.744;2024-03-25T02:40:16;8.05;;;6.35;;
76935;SDS011;65881;52.438;16.744;2024-03-25T02:42:43;9.07;;;6.00;;
76935;SDS011;65881;52.438;16.744;2024-03-25T02:45:09;8.43;;;6.30;;
76935;SDS011;65881;52.438;16.744;2024-03-25T02:47:35;8.02;;;5.70;;
76935;SDS011;65881;52.438;16.744;2024-03-25T02:50:02;10.60;;;5.43;;
76935;SDS011;65881;52.438;16.744;2024-03-25T02:52:28;11.50;;;6.47;;
76935;SDS011;65881;52.438;16.744;2024-03-25T02:54:53;9.55;;;5.70;;
76935;SDS011;65881;52.438;16.744;2024-03-25T02:57:19;9.68;;;6.38;;
76935;SDS011;65881;52.438;16.744;2024-03-25T02:59:45;9.45;;;5.85;;
76935;SDS011;65881;52.438;16.744;2024-03-25T03:02:12;10.43;;;6.63;;
76935;SDS011;65881;52.438;16.744;2024-03-25T03:04:37;7.97;;;5.50;;
76935;SDS011;65881;52.438;16.744;2024-03-25T03:07:03;9.68;;;5.63;;
76935;SDS011;65881;52.438;16.744;2024-03-25T03:09:29;8.57;;;6.45;;
76935;SDS011;65881;52.438;16.744;2024-03-25T03:11:54;12.13;;;6.88;;
76935;SDS011;65881;52.438;16.744;2024-03-25T03:14:20;9.05;;;5.72;;
76935;SDS011;65881;52.438;16.744;2024-03-25T03:16:45;9.93;;;6.20;;
76935;SDS011;65881;52.438;16.744;2024-03-25T03:19:11;9.90;;;7.25;;
76935;SDS011;65881;52.438;16.744;2024-03-25T03:21:36;13.20;;;6.57;;
76935;SDS011;65881;52.438;16.744;2024-03-25T03:24:02;9.82;;;6.35;;
76935;SDS011;65881;52.438;16.744;2024-03-25T03:26:31;12.70;;;7.70;;
76935;SDS011;65881;52.438;16.744;2024-03-25T03:28:56;7.22;;;6.25;;
76935;SDS011;65881;52.438;16.744;2024-03-25T03:31:28;10.57;;;7.35;;
76935;SDS011;65881;52.438;16.744;2024-03-25T03:33:54;12.48;;;7.05;;
76935;SDS011;65881;52.438;16.744;2024-03-25T03:36:20;8.98;;;6.40;;
76935;SDS011;65881;52.438;16.744;2024-03-25T03:38:47;9.20;;;6.00;;
76935;SDS011;65881;52.438;16.744;2024-03-25T03:41:15;12.30;;;7.07;;
76935;SDS011;65881;52.438;16.744;2024-03-25T03:43:40;8.48;;;6.03;;
76935;SDS011;65881;52.438;16.744;2024-03-25T03:46:06;11.55;;;7.93;;
76935;SDS011;65881;52.438;16.744;2024-03-25T03:48:31;9.95;;;6.75;;
76935;SDS011;65881;52.438;16.744;2024-03-25T03:50:57;13.27;;;8.13;;
76935;SDS011;65881;52.438;16.744;2024-03-25T03:53:22;11.20;;;7.55;;
76935;SDS011;65881;52.438;16.744;2024-03-25T03:55:55;8.02;;;6.15;;
76935;SDS011;65881;52.438;16.744;2024-03-25T03:58:21;10.00;;;6.88;;
76935;SDS011;65881;52.438;16.744;2024-03-25T04:00:48;11.10;;;6.45;;
76935;SDS011;65881;52.438;16.744;2024-03-25T04:03:14;12.05;;;8.20;;
76935;SDS011;65881;52.438;16.744;2024-03-25T04:05:39;12.68;;;7.47;;
76935;SDS011;65881;52.438;16.744;2024-03-25T04:08:05;9.65;;;6.63;;
76935;SDS011;65881;52.438;16.744;2024-03-25T04:10:31;11.60;;;7.68;;
76935;SDS011;65881;52.438;16.744;2024-03-25T04:12:56;17.90;;;7.97;;
76935;SDS011;65881;52.438;16.744;2024-03-25T04:15:22;11.93;;;7.47;;
76935;SDS011;65881;52.438;16.744;2024-03-25T04:17:48;9.90;;;6.60;;
76935;SDS011;65881;52.438;16.744;2024-03-25T04:20:16;10.25;;;6.80;;
76935;SDS011;65881;52.438;16.744;2024-03-25T04:22:45;9.20;;;6.32;;
76935;SDS011;65881;52.438;16.744;2024-03-25T04:25:11;10.57;;;5.63;;
76935;SDS011;65881;52.438;16.744;2024-03-25T04:27:46;11.25;;;7.25;;
76935;SDS011;65881;52.438;16.744;2024-03-25T04:30:11;6.97;;;4.32;;
76935;SDS011;65881;52.438;16.744;2024-03-25T04:32:37;7.20;;;4.40;;
76935;SDS011;65881;52.438;16.744;2024-03-25T04:35:04;4.47;;;3.20;;
76935;SDS011;65881;52.438;16.744;2024-03-25T04:37:31;5.85;;;3.53;;
76935;SDS011;65881;52.438;16.744;2024-03-25T04:39:57;4.72;;;3.35;;
76935;SDS011;65881;52.438;16.744;2024-03-25T04:42:23;5.38;;;3.30;;
76935;SDS011;65881;52.438;16.744;2024-03-25T04:44:51;4.80;;;3.33;;
76935;SDS011;65881;52.438;16.744;2024-03-25T04:47:17;4.35;;;3.20;;
76935;SDS011;65881;52.438;16.744;2024-03-25T04:49:45;6.18;;;4.70;;
76935;SDS011;65881;52.438;16.744;2024-03-25T04:52:11;4.32;;;2.88;;
76935;SDS011;65881;52.438;16.744;2024-03-25T04:54:41;6.50;;;3.35;;
76935;SDS011;65881;52.438;16.744;2024-03-25T04:57:08;4.85;;;3.35;;
76935;SDS011;65881;52.438;16.744;2024-03-25T04:59:33;6.95;;;3.55;;
76935;SDS011;65881;52.438;16.744;2024-03-25T05:01:59;4.55;;;3.08;;
76935;SDS011;65881;52.438;16.744;2024-03-25T05:04:25;7.50;;;3.80;;
76935;SDS011;65881;52.438;16.744;2024-03-25T05:06:50;6.05;;;4.05;;
76935;SDS011;65881;52.438;16.744;2024-03-25T05:09:16;5.50;;;3.35;;
76935;SDS011;65881;52.438;16.744;2024-03-25T05:11:42;5.60;;;4.53;;
76935;SDS011;65881;52.438;16.744;2024-03-25T05:14:08;6.05;;;5.00;;
76935;SDS011;65881;52.438;16.744;2024-03-25T05:16:34;6.05;;;4.60;;
76935;SDS011;65881;52.438;16.744;2024-03-25T05:18:59;10.10;;;5.93;;
76935;SDS011;65881;52.438;16.744;2024-03-25T05:21:25;8.18;;;6.05;;
76935;SDS011;65881;52.438;16.744;2024-03-25T05:23:50;7.68;;;5.28;;
76935;SDS011;65881;52.438;16.744;2024-03-25T05:26:15;6.57;;;4.57;;
76935;SDS011;65881;52.438;16.744;2024-03-25T05:28:41;8.10;;;5.30;;
76935;SDS011;65881;52.438;16.744;2024-03-25T05:31:07;6.75;;;4.70;;
76935;SDS011;65881;52.438;16.744;2024-03-25T05:33:33;9.10;;;6.05;;
76935;SDS011;65881;52.438;16.744;2024-03-25T05:35:59;7.47;;;4.88;;
76935;SDS011;65881;52.438;16.744;2024-03-25T05:38:25;6.90;;;4.35;;
76935;SDS011;65881;52.438;16.744;2024-03-25T05:40:52;8.18;;;4.65;;
76935;SDS011;65881;52.438;16.744;2024-03-25T05:43:17;8.73;;;5.18;;
76935;SDS011;65881;52.438;16.744;2024-03-25T05:45:53;7.55;;;4.50;;
76935;SDS011;65881;52.438;16.744;2024-03-25T05:48:23;8.10;;;4.30;;
76935;SDS011;65881;52.438;16.744;2024-03-25T05:51:05;8.27;;;4.45;;
76935;SDS011;65881;52.438;16.744;2024-03-25T05:53:32;7.57;;;4.90;;
76935;SDS011;65881;52.438;16.744;2024-03-25T05:55:58;8.85;;;4.50;;
76935;SDS011;65881;52.438;16.744;2024-03-25T05:58:26;7.85;;;4.55;;
76935;SDS011;65881;52.438;16.744;2024-03-25T06:00:52;7.18;;;4.47;;
76935;SDS011;65881;52.438;16.744;2024-03-25T06:03:18;5.45;;;3.65;;
76935;SDS011;65881;52.438;16.744;2024-03-25T06:05:45;9.50;;;4.50;;
76935;SDS011;65881;52.438;16.744;2024-03-25T06:08:12;8.82;;;5.43;;
76935;SDS011;65881;52.438;16.744;2024-03-25T06:10:46;7.57;;;5.03;;
76935;SDS011;65881;52.438;16.744;2024-03-25T06:13:11;11.20;;;6.40;;
76935;SDS011;65881;52.438;16.744;2024-03-25T06:15:37;10.20;;;6.65;;
76935;SDS011;65881;52.438;16.744;2024-03-25T06:18:02;14.07;;;8.43;;
76935;SDS011;65881;52.438;16.744;2024-03-25T06:20:28;14.90;;;8.13;;
76935;SDS011;65881;52.438;16.744;2024-03-25T06:22:54;15.40;;;9.30;;
76935;SDS011;65881;52.438;16.744;2024-03-25T06:25:19;17.42;;;9.32;;
76935;SDS011;65881;52.438;16.744;2024-03-25T06:27:45;17.63;;;9.13;;
76935;SDS011;65881;52.438;16.744;2024-03-25T06:30:11;16.77;;;8.95;;
76935;SDS011;65881;52.438;16.744;2024-03-25T06:32:55;17.27;;;9.10;;
76935;SDS011;65881;52.438;16.744;2024-03-25T06:35:39;17.20;;;10.32;;
76935;SDS011;65881;52.438;16.744;2024-03-25T06:38:08;18.88;;;11.25;;
76935;SDS011;65881;52.438;16.744;2024-03-25T06:40:33;17.05;;;9.68;;
76935;SDS011;65881;52.438;16.744;2024-03-25T06:42:59;20.08;;;11.52;;
76935;SDS011;65881;52.438;16.744;2024-03-25T06:45:25;23.23;;;13.18;;
76935;SDS011;65881;52.438;16.744;2024-03-25T06:47:50;19.27;;;11.73;;
76935;SDS011;65881;52.438;16.744;2024-03-25T06:50:16;20.70;;;12.13;;
76935;SDS011;65881;52.438;16.744;2024-03-25T06:52:41;18.92;;;11.40;;
76935;SDS011;65881;52.438;16.744;2024-03-25T06:55:07;21.42;;;13.55;;
76935;SDS011;65881;52.438;16.744;2024-03-25T06:57:33;19.10;;;12.65;;
76935;SDS011;65881;52.438;16.744;2024-03-25T06:59:58;21.63;;;12.45;;
76935;SDS011;65881;52.438;16.744;2024-03-25T07:02:24;21.08;;;12.25;;
76935;SDS011;65881;52.438;16.744;2024-03-25T07:04:50;18.05;;;11.63;;
76935;SDS011;65881;52.438;16.744;2024-03-25T07:07:15;20.45;;;11.98;;
76935;SDS011;65881;52.438;16.744;2024-03-25T07:09:41;20.33;;;12.15;;
76935;SDS011;65881;52.438;16.744;2024-03-25T07:12:06;21.08;;;12.48;;
76935;SDS011;65881;52.438;16.744;2024-03-25T07:14:32;21.88;;;12.07;;
76935;SDS011;65881;52.438;16.744;2024-03-25T07:16:58;18.10;;;11.55;;
76935;SDS011;65881;52.438;16.744;2024-03-25T07:19:23;23.92;;;11.55;;
76935;SDS011;65881;52.438;16.744;2024-03-25T07:21:49;20.50;;;12.30;;
76935;SDS011;65881;52.438;16.744;2024-03-25T07:24:14;17.05;;;9.88;;
76935;SDS011;65881;52.438;16.744;2024-03-25T07:26:40;19.13;;;12.27;;
76935;SDS011;65881;52.438;16.744;2024-03-25T07:29:06;19.40;;;11.68;;
76935;SDS011;65881;52.438;16.744;2024-03-25T07:31:32;19.77;;;11.15;;
76935;SDS011;65881;52.438;16.744;2024-03-25T07:33:58;18.25;;;10.10;;
76935;SDS011;65881;52.438;16.744;2024-03-25T07:36:23;21.77;;;11.27;;
76935;SDS011;65881;52.438;16.744;2024-03-25T07:38:49;20.20;;;10.43;;
76935;SDS011;65881;52.438;16.744;2024-03-25T07:41:15;18.38;;;10.68;;
76935;SDS011;65881;52.438;16.744;2024-03-25T07:43:40;17.65;;;10.88;;
76935;SDS011;65881;52.438;16.744;2024-03-25T07:46:06;18.20;;;10.90;;
76935;SDS011;65881;52.438;16.744;2024-03-25T07:48:31;18.63;;;9.57;;
76935;SDS011;65881;52.438;16.744;2024-03-25T07:50:57;16.08;;;9.57;;
76935;SDS011;65881;52.438;16.744;2024-03-25T07:53:22;14.95;;;9.48;;
76935;SDS011;65881;52.438;16.744;2024-03-25T07:55:48;15.00;;;8.95;;
76935;SDS011;65881;52.438;16.744;2024-03-25T07:58:13;16.45;;;9.65;;
76935;SDS011;65881;52.438;16.744;2024-03-25T08:00:39;17.90;;;9.98;;
76935;SDS011;65881;52.438;16.744;2024-03-25T08:03:07;14.70;;;8.52;;
76935;SDS011;65881;52.438;16.744;2024-03-25T08:05:33;16.73;;;9.38;;
76935;SDS011;65881;52.438;16.744;2024-03-25T08:07:59;12.10;;;8.02;;
76935;SDS011;65881;52.438;16.744;2024-03-25T08:10:24;14.65;;;8.48;;
76935;SDS011;65881;52.438;16.744;2024-03-25T08:12:50;14.23;;;9.13;;
76935;SDS011;65881;52.438;16.744;2024-03-25T08:15:16;13.32;;;7.93;;
76935;SDS011;65881;52.438;16.744;2024-03-25T08:17:42;12.00;;;7.13;;
76935;SDS011;65881;52.438;16.744;2024-03-25T08:20:07;10.98;;;6.25;;
76935;SDS011;65881;52.438;16.744;2024-03-25T08:22:33;11.43;;;7.13;;
76935;SDS011;65881;52.438;16.744;2024-03-25T08:24:59;8.77;;;6.18;;
76935;SDS011;65881;52.438;16.744;2024-03-25T08:27:24;12.65;;;6.80;;
76935;SDS011;65881;52.438;16.744;2024-03-25T08:29:50;12.73;;;7.03;;
76935;SDS011;65881;52.438;16.744;2024-03-25T08:32:18;14.68;;;8.07;;
76935;SDS011;65881;52.438;16.744;2024-03-25T08:34:44;12.38;;;7.85;;
76935;SDS011;65881;52.438;16.744;2024-03-25T08:37:10;13.40;;;8.50;;
76935;SDS011;65881;52.438;16.744;2024-03-25T08:39:35;16.42;;;9.05;;
76935;SDS011;65881;52.438;16.744;2024-03-25T08:42:02;16.25;;;9.32;;
76935;SDS011;65881;52.438;16.744;2024-03-25T08:44:28;13.05;;;8.43;;
76935;SDS011;65881;52.438;16.744;2024-03-25T08:46:54;13.57;;;8.20;;
76935;SDS011;65881;52.438;16.744;2024-03-25T08:49:19;14.00;;;9.10;;
76935;SDS011;65881;52.438;16.744;2024-03-25T08:51:45;14.93;;;9.65;;
76935;SDS011;65881;52.438;16.744;2024-03-25T08:54:11;12.57;;;8.85;;
76935;SDS011;65881;52.438;16.744;2024-03-25T08:56:36;16.02;;;9.98;;
76935;SDS011;65881;52.438;16.744;2024-03-25T08:59:02;16.48;;;8.98;;
76935;SDS011;65881;52.438;16.744;2024-03-25T09:01:31;14.35;;;8.50;;
76935;SDS011;65881;52.438;16.744;2024-03-25T09:03:56;17.38;;;9.50;;
76935;SDS011;65881;52.438;16.744;2024-03-25T09:06:22;19.60;;;9.82;;
76935;SDS011;65881;52.438;16.744;2024-03-25T09:08:48;15.82;;;9.23;;
76935;SDS011;65881;52.438;16.744;2024-03-25T09:11:32;19.77;;;9.20;;
76935;SDS011;65881;52.438;16.744;2024-03-25T09:13:57;11.80;;;8.85;;
76935;SDS011;65881;52.438;16.744;2024-03-25T09:16:23;11.25;;;7.28;;
76935;SDS011;65881;52.438;16.744;2024-03-25T09:18:48;13.68;;;7.53;;
76935;SDS011;65881;52.438;16.744;2024-03-25T09:21:14;10.32;;;6.72;;
76935;SDS011;65881;52.438;16.744;2024-03-25T09:23:39;14.02;;;8.18;;
76935;SDS011;65881;52.438;16.744;2024-03-25T09:26:05;13.30;;;8.30;;
76935;SDS011;65881;52.438;16.744;2024-03-25T09:28:30;15.65;;;8.52;;
76935;SDS011;65881;52.438;16.744;2024-03-25T09:30:56;15.65;;;9.27;;
76935;SDS011;65881;52.438;16.744;2024-03-25T09:33:21;15.30;;;9.38;;
76935;SDS011;65881;52.438;16.744;2024-03-25T09:35:47;16.50;;;9.73;;
76935;SDS011;65881;52.438;16.744;2024-03-25T09:38:12;16.95;;;10.43;;
76935;SDS011;65881;52.438;16.744;2024-03-25T09:40:41;17.20;;;11.73;;
76935;SDS011;65881;52.438;16.744;2024-03-25T09:43:12;17.35;;;10.50;;
76935;SDS011;65881;52.438;16.744;2024-03-25T09:45:46;17.42;;;10.82;;
76935;SDS011;65881;52.438;16.744;2024-03-25T09:48:13;15.43;;;9.75;;
76935;SDS011;65881;52.438;16.744;2024-03-25T09:50:41;19.65;;;10.48;;
76935;SDS011;65881;52.438;16.744;2024-03-25T09:53:08;17.23;;;10.32;;
76935;SDS011;65881;52.438;16.744;2024-03-25T09:55:34;18.52;;;10.95;;
76935;SDS011;65881;52.438;16.744;2024-03-25T09:58:00;18.98;;;11.30;;
76935;SDS011;65881;52.438;16.744;2024-03-25T10:00:26;16.35;;;9.75;;
76935;SDS011;65881;52.438;16.744;2024-03-25T10:02:51;15.68;;;10.05;;
76935;SDS011;65881;52.438;16.744;2024-03-25T10:05:17;17.08;;;10.15;;
76935;SDS011;65881;52.438;16.744;2024-03-25T10:07:42;14.88;;;9.55;;
76935;SDS011;65881;52.438;16.744;2024-03-25T10:10:08;14.30;;;8.57;;
76935;SDS011;65881;52.438;16.744;2024-03-25T10:12:35;14.13;;;9.25;;
76935;SDS011;65881;52.438;16.744;2024-03-25T10:15:01;13.90;;;10.18;;
76935;SDS011;65881;52.438;16.744;2024-03-25T10:17:27;14.75;;;8.57;;
76935;SDS011;65881;52.438;16.744;2024-03-25T10:19:55;9.65;;;8.60;;
76935;SDS011;65881;52.438;16.744;2024-03-25T10:22:20;13.77;;;9.50;;
76935;SDS011;65881;52.438;16.744;2024-03-25T10:24:46;11.20;;;8.50;;
76935;SDS011;65881;52.438;16.744;2024-03-25T10:27:20;10.30;;;7.53;;
76935;SDS011;65881;52.438;16.744;2024-03-25T10:29:46;8.95;;;6.68;;
76935;SDS011;65881;52.438;16.744;2024-03-25T10:32:13;9.05;;;5.85;;
76935;SDS011;65881;52.438;16.744;2024-03-25T10:34:39;9.82;;;6.15;;
76935;SDS011;65881;52.438;16.744;2024-03-25T10:37:05;9.18;;;6.20;;
76935;SDS011;65881;52.438;16.744;2024-03-25T10:39:40;8.77;;;5.85;;
76935;SDS011;65881;52.438;16.744;2024-03-25T10:42:13;6.35;;;4.18;;
76935;SDS011;65881;52.438;16.744;2024-03-25T10:47:08;5.70;;;4.80;;
76935;SDS011;65881;52.438;16.744;2024-03-25T10:49:43;5.85;;;4.22;;
76935;SDS011;65881;52.438;16.744;2024-03-25T10:52:15;5.53;;;4.05;;
76935;SDS011;65881;52.438;16.744;2024-03-25T10:54:42;5.13;;;4.50;;
76935;SDS011;65881;52.438;16.744;2024-03-25T10:57:09;4.72;;;4.05;;
76935;SDS011;65881;52.438;16.744;2024-03-25T10:59:37;5.53;;;4.03;;
76935;SDS011;65881;52.438;16.744;2024-03-25T11:02:06;5.20;;;4.20;;
76935;SDS011;65881;52.438;16.744;2024-03-25T11:04:36;5.93;;;4.72;;
76935;SDS011;65881;52.438;16.744;2024-03-25T11:07:14;7.40;;;5.18;;
76935;SDS011;65881;52.438;16.744;2024-03-25T11:09:40;8.02;;;5.10;;
76935;SDS011;65881;52.438;16.744;2024-03-25T11:12:07;7.05;;;5.22;;
76935;SDS011;65881;52.438;16.744;2024-03-25T11:14:35;8.25;;;4.75;;
76935;SDS011;65881;52.438;16.744;2024-03-25T11:17:01;5.00;;;4.35;;
76935;SDS011;65881;52.438;16.744;2024-03-25T11:19:29;7.18;;;5.45;;
76935;SDS011;65881;52.438;16.744;2024-03-25T11:22:05;6.25;;;5.10;;
76935;SDS011;65881;52.438;16.744;2024-03-25T11:24:32;7.90;;;4.88;;
76935;SDS011;65881;52.438;16.744;2024-03-25T11:27:01;7.82;;;5.22;;
76935;SDS011;65881;52.438;16.744;2024-03-25T11:29:29;7.35;;;5.38;;
76935;SDS011;65881;52.438;16.744;2024-03-25T11:31:55;5.68;;;3.85;;
76935;SDS011;65881;52.438;16.744;2024-03-25T11:34:23;6.38;;;4.45;;
76935;SDS011;65881;52.438;16.744;2024-03-25T11:36:48;5.38;;;3.63;;
76935;SDS011;65881;52.438;16.744;2024-03-25T11:39:14;4.38;;;3.30;;
76935;SDS011;65881;52.438;16.744;2024-03-25T11:41:43;5.10;;;3.60;;
76935;SDS011;65881;52.438;16.744;2024-03-25T11:44:10;5.60;;;4.30;;
76935;SDS011;65881;52.438;16.744;2024-03-25T11:46:39;4.07;;;2.67;;
76935;SDS011;65881;52.438;16.744;2024-03-25T11:49:17;3.65;;;3.00;;
76935;SDS011;65881;52.438;16.744;2024-03-25T11:51:43;3.22;;;2.85;;
76935;SDS011;65881;52.438;16.744;2024-03-25T11:54:29;4.40;;;3.22;;
76935;SDS011;65881;52.438;16.744;2024-03-25T11:56:54;6.53;;;4.47;;
76935;SDS011;65881;52.438;16.744;2024-03-25T11:59:20;6.40;;;4.65;;
76935;SDS011;65881;52.438;16.744;2024-03-25T12:01:48;6.90;;;3.83;;
76935;SDS011;65881;52.438;16.744;2024-03-25T12:04:16;4.65;;;3.15;;
76935;SDS011;65881;52.438;16.744;2024-03-25T12:06:43;3.88;;;3.10;;
76935;SDS011;65881;52.438;16.744;2024-03-25T12:09:09;5.10;;;3.25;;
76935;SDS011;65881;52.438;16.744;2024-03-25T12:11:54;5.57;;;3.95;;
76935;SDS011;65881;52.438;16.744;2024-03-25T12:14:24;6.47;;;4.63;;
76935;SDS011;65881;52.438;16.744;2024-03-25T12:16:52;7.80;;;5.40;;
76935;SDS011;65881;52.438;16.744;2024-03-25T12:19:19;8.63;;;5.97;;
76935;SDS011;65881;52.438;16.744;2024-03-25T12:21:45;7.68;;;5.20;;
76935;SDS011;65881;52.438;16.744;2024-03-25T12:24:13;5.22;;;3.85;;
76935;SDS011;65881;52.438;16.744;2024-03-25T12:26:39;7.30;;;4.90;;
76935;SDS011;65881;52.438;16.744;2024-03-25T12:29:05;5.53;;;3.38;;
76935;SDS011;65881;52.438;16.744;2024-03-25T12:31:33;6.75;;;3.78;;
76935;SDS011;65881;52.438;16.744;2024-03-25T12:34:09;4.50;;;3.38;;
76935;SDS011;65881;52.438;16.744;2024-03-25T12:36:35;5.65;;;3.92;;
76935;SDS011;65881;52.438;16.744;2024-03-25T12:39:01;5.25;;;4.43;;
76935;SDS011;65881;52.438;16.744;2024-03-25T12:41:27;4.70;;;3.40;;
76935;SDS011;65881;52.438;16.744;2024-03-25T12:43:52;4.75;;;3.45;;
76935;SDS011;65881;52.438;16.744;2024-03-25T12:46:24;4.78;;;3.55;;
76935;SDS011;65881;52.438;16.744;2024-03-25T12:48:50;3.65;;;2.97;;
76935;SDS011;65881;52.438;16.744;2024-03-25T12:51:15;7.50;;;3.40;;
76935;SDS011;65881;52.438;16.744;2024-03-25T12:53:42;3.80;;;2.92;;
76935;SDS011;65881;52.438;16.744;2024-03-25T12:56:08;4.63;;;2.92;;
76935;SDS011;65881;52.438;16.744;2024-03-25T12:58:36;5.35;;;3.75;;
76935;SDS011;65881;52.438;16.744;2024-03-25T13:01:05;6.03;;;3.75;;
76935;SDS011;65881;52.438;16.744;2024-03-25T13:03:31;5.93;;;4.07;;
76935;SDS011;65881;52.438;16.744;2024-03-25T13:05:57;6.55;;;4.38;;
76935;SDS011;65881;52.438;16.744;2024-03-25T13:08:24;6.85;;;4.00;;
76935;SDS011;65881;52.438;16.744;2024-03-25T13:10:50;6.75;;;4.57;;
76935;SDS011;65881;52.438;16.744;2024-03-25T13:13:16;6.70;;;4.63;;
76935;SDS011;65881;52.438;16.744;2024-03-25T13:15:56;6.43;;;4.68;;
76935;SDS011;65881;52.438;16.744;2024-03-25T13:18:54;5.85;;;3.97;;
76935;SDS011;65881;52.438;16.744;2024-03-25T13:21:19;5.13;;;3.55;;
76935;SDS011;65881;52.438;16.744;2024-03-25T13:23:46;5.82;;;3.63;;
76935;SDS011;65881;52.438;16.744;2024-03-25T13:26:17;3.75;;;2.70;;
76935;SDS011;65881;52.438;16.744;2024-03-25T13:31:11;3.25;;;2.83;;
76935;SDS011;65881;52.438;16.744;2024-03-25T13:33:37;3.33;;;2.60;;
76935;SDS011;65881;52.438;16.744;2024-03-25T13:36:04;5.88;;;3.45;;
76935;SDS011;65881;52.438;16.744;2024-03-25T13:38:31;3.97;;;2.78;;
76935;SDS011;65881;52.438;16.744;2024-03-25T13:41:00;5.57;;;3.47;;
76935;SDS011;65881;52.438;16.744;2024-03-25T13:43:26;5.25;;;3.33;;
76935;SDS011;65881;52.438;16.744;2024-03-25T13:45:52;5.88;;;3.42;;
76935;SDS011;65881;52.438;16.744;2024-03-25T13:48:18;4.35;;;3.55;;
76935;SDS011;65881;52.438;16.744;2024-03-25T13:50:44;5.35;;;3.70;;
76935;SDS011;65881;52.438;16.744;2024-03-25T13:53:10;4.28;;;3.28;;
76935;SDS011;65881;52.438;16.744;2024-03-25T13:55:39;5.72;;;3.97;;
76935;SDS011;65881;52.438;16.744;2024-03-25T13:58:07;6.03;;;3.95;;
76935;SDS011;65881;52.438;16.744;2024-03-25T14:00:43;5.38;;;3.67;;
76935;SDS011;65881;52.438;16.744;2024-03-25T14:03:09;5.55;;;3.75;;
76935;SDS011;65881;52.438;16.744;2024-03-25T14:05:35;4.78;;;3.30;;
76935;SDS011;65881;52.438;16.744;2024-03-25T14:08:01;4.75;;;3.03;;
76935;SDS011;65881;52.438;16.744;2024-03-25T14:10:29;5.82;;;3.65;;
76935;SDS011;65881;52.438;16.744;2024-03-25T14:12:55;5.43;;;3.75;;
76935;SDS011;65881;52.438;16.744;2024-03-25T14:15:21;7.75;;;4.25;;
76935;SDS011;65881;52.438;16.744;2024-03-25T14:17:47;7.82;;;4.18;;
76935;SDS011;65881;52.438;16.744;2024-03-25T14:20:13;5.65;;;3.67;;
76935;SDS011;65881;52.438;16.744;2024-03-25T14:22:42;4.88;;;3.47;;
76935;SDS011;65881;52.438;16.744;2024-03-25T14:25:08;4.07;;;3.28;;
76935;SDS011;65881;52.438;16.744;2024-03-25T14:27:34;5.32;;;4.13;;
76935;SDS011;65881;52.438;16.744;2024-03-25T14:30:01;4.90;;;3.53;;
76935;SDS011;65881;52.438;16.744;2024-03-25T14:32:34;6.28;;;3.88;;